Terminal Aerodrome Forecast
Issued by NWS Tuscon, AZ

Home | Current Version | Previous Version | Text Only | Print | Product List | Glossary On
Versions: 1 2 3 4 5 6 7 8 9 10 11 12 13 14 15 16
000
FTUS45 KTWC 311120
TAFDUG
TAF
KDUG 311120Z 3112/0112 VRB04KT P6SM FEW110 SCT200
     FM312100 26007KT P6SM VCTS SCT080CB BKN200
     FM010100 30008KT P6SM VCSH BKN090 BKN200
     FM010500 VRB05KT P6SM SCT090 SCT200=

USA.gov is the U.S. government's official web portal to all federal, state and local government web resources and services.